Observation data for Seminole on 07/03/2020      Previous  Date  Next       Current Mesonet Observations  Soil Data  Daily Summary Page  Observations in Plain Language
KSM1 030500Z 15008KT 26/13 A3005 RMK A01 T02640130  RH  045%=      5-min Rain = 0
KSM1 030505Z 16009KT 27/13 A3005 RMK A01 T02650126  RH  044%=      5-min Rain = 0
KSM1 030510Z 16010KT 27/12 A3005 RMK A01 T02670124  RH  043%=      5-min Rain = 0
KSM1 030515Z 16009KT 27/12 A3005 RMK A01 T02670124  RH  042%=      5-min Rain = 0
KSM1 030520Z 15008KT 27/12 A3005 RMK A01 T02660124  RH  043%=      5-min Rain = 0
KSM1 030525Z 15009KT 27/12 A3005 RMK A01 T02670122  RH  042%=      5-min Rain = 0
KSM1 030530Z 15009KT 27/12 A3005 RMK A01 T02670121  RH  042%=      5-min Rain = 0
KSM1 030535Z 15009KT 27/12 A3005 RMK A01 T02670120  RH  041%=      5-min Rain = 0
KSM1 030540Z 15009KT 27/12 A3005 RMK A01 T02670120  RH  042%=      5-min Rain = 0
KSM1 030545Z 15009KT 27/12 A3005 RMK A01 T02660120  RH  042%=      5-min Rain = 0
KSM1 030550Z 15009KT 27/12 A3005 RMK A01 T02650120  RH  042%=      5-min Rain = 0
KSM1 030555Z 15009KT 27/12 A3005 RMK A01 T02650120  RH  042%=      5-min Rain = 0
KSM1 030600Z 15009KT 27/12 A3006 RMK A01 T02650120  RH  042%=      5-min Rain = 0
KSM1 030605Z 16009KT 26/12 A3006 RMK A01 T02630120  RH  042%=      5-min Rain = 0
KSM1 030610Z 16009KT 26/12 A3006 RMK A01 T02630120  RH  042%=      5-min Rain = 0
KSM1 030615Z 17008KT 26/12 A3006 RMK A01 T02620121  RH  043%=      5-min Rain = 0
KSM1 030620Z 17007KT 26/12 A3006 RMK A01 T02600121  RH  044%=      5-min Rain = 0
KSM1 030625Z 16006KT 26/12 A3007 RMK A01 T02580122  RH  044%=      5-min Rain = 0
KSM1 030630Z 15006KT 26/12 A3007 RMK A01 T02560123  RH  045%=      5-min Rain = 0
KSM1 030635Z 16006KT 26/12 A3007 RMK A01 T02550123  RH  045%=      5-min Rain = 0
KSM1 030640Z 15005KT 25/12 A3007 RMK A01 T02530123  RH  046%=      5-min Rain = 0
KSM1 030645Z 15004KT 25/12 A3007 RMK A01 T02520124  RH  047%=      5-min Rain = 0
KSM1 030650Z 15005KT 25/12 A3007 RMK A01 T02500124  RH  047%=      5-min Rain = 0
KSM1 030655Z 15005KT 25/13 A3006 RMK A01 T02470125  RH  049%=      5-min Rain = 0
KSM1 030700Z 15005KT 24/13 A3006 RMK A01 T02440126  RH  050%=      5-min Rain = 0
KSM1 030705Z 15005KT 24/13 A3006 RMK A01 T02430126  RH  050%=      5-min Rain = 0
KSM1 030710Z 15005KT 24/13 A3006 RMK A01 T02410126  RH  050%=      5-min Rain = 0
KSM1 030715Z 16004KT 24/12 A3005 RMK A01 T02380124  RH  051%=      5-min Rain = 0
KSM1 030720Z 16004KT 24/12 A3005 RMK A01 T02370124  RH  051%=      5-min Rain = 0
KSM1 030725Z 16004KT 24/13 A3005 RMK A01 T02370125  RH  051%=      5-min Rain = 0
KSM1 030730Z 16003KT 24/13 A3005 RMK A01 T02360125  RH  052%=      5-min Rain = 0
KSM1 030735Z 16003KT 24/13 A3005 RMK A01 T02350125  RH  052%=      5-min Rain = 0
KSM1 030740Z 16002KT 23/12 A3005 RMK A01 T02340124  RH  052%=      5-min Rain = 0
KSM1 030745Z 16001KT 23/12 A3005 RMK A01 T02300123  RH  053%=      5-min Rain = 0
KSM1 030750Z 14002KT 23/12 A3005 RMK A01 T02260122  RH  054%=      5-min Rain = 0
KSM1 030755Z 13004KT 23/13 A3005 RMK A01 T02270125  RH  055%=      5-min Rain = 0
KSM1 030800Z 13004KT 23/13 A3005 RMK A01 T02300126  RH  054%=      5-min Rain = 0
KSM1 030805Z 13004KT 23/13 A3005 RMK A01 T02320126  RH  053%=      5-min Rain = 0
KSM1 030810Z 13003KT 23/13 A3005 RMK A01 T02310125  RH  053%=      5-min Rain = 0
KSM1 030815Z 13002KT 23/12 A3004 RMK A01 T02290124  RH  054%=      5-min Rain = 0
KSM1 030820Z 13002KT 23/13 A3004 RMK A01 T02280125  RH  054%=      5-min Rain = 0
KSM1 030825Z 13003KT 23/12 A3004 RMK A01 T02260124  RH  054%=      5-min Rain = 0
KSM1 030830Z 13004KT 23/13 A3004 RMK A01 T02260125  RH  055%=      5-min Rain = 0
KSM1 030835Z 13005KT 23/12 A3003 RMK A01 T02270124  RH  054%=      5-min Rain = 0
KSM1 030840Z 13004KT 23/12 A3003 RMK A01 T02250124  RH  055%=      5-min Rain = 0
KSM1 030845Z 13003KT 22/12 A3003 RMK A01 T02240124  RH  055%=      5-min Rain = 0
KSM1 030850Z 13003KT 22/12 A3003 RMK A01 T02240123  RH  055%=      5-min Rain = 0
KSM1 030855Z 13003KT 22/12 A3003 RMK A01 T02230124  RH  056%=      5-min Rain = 0
KSM1 030900Z 13002KT 22/12 A3003 RMK A01 T02220124  RH  056%=      5-min Rain = 0
KSM1 030905Z 13002KT 22/13 A3003 RMK A01 T02220125  RH  056%=      5-min Rain = 0
KSM1 030910Z 13002KT 22/13 A3003 RMK A01 T02210125  RH  057%=      5-min Rain = 0
KSM1 030915Z 13001KT 22/12 A3003 RMK A01 T02200124  RH  056%=      5-min Rain = 0
KSM1 030920Z 13000KT 22/12 A3003 RMK A01 T02210122  RH  055%=      5-min Rain = 0
KSM1 030925Z 11001KT 22/12 A3003 RMK A01 T02170118  RH  055%=      5-min Rain = 0
KSM1 030930Z 07001KT 21/12 A3003 RMK A01 T02130118  RH  057%=      5-min Rain = 0
KSM1 030935Z 05004KT 21/12 A3004 RMK A01 T02110118  RH  057%=      5-min Rain = 0
KSM1 030940Z 05004KT 21/12 A3004 RMK A01 T02100118  RH  058%=      5-min Rain = 0
KSM1 030945Z 04004KT 21/12 A3004 RMK A01 T02110120  RH  058%=      5-min Rain = 0
KSM1 030950Z 04003KT 21/12 A3004 RMK A01 T02100120  RH  059%=      5-min Rain = 0
KSM1 030955Z 03002KT 21/12 A3004 RMK A01 T02100123  RH  059%=      5-min Rain = 0
KSM1 031000Z 33000KT 22/13 A3003 RMK A01 T02150125  RH  059%=      5-min Rain = 0
KSM1 031005Z 30004KT 22/13 A3003 RMK A01 T02180125  RH  058%=      5-min Rain = 0
KSM1 031010Z 31005KT 21/13 A3004 RMK A01 T02140128  RH  060%=      5-min Rain = 0
KSM1 031015Z 32004KT 21/13 A3004 RMK A01 T02090126  RH  061%=      5-min Rain = 0
KSM1 031020Z 34004KT 21/12 A3004 RMK A01 T02060124  RH  062%=      5-min Rain = 0
KSM1 031025Z 01005KT 20/12 A3005 RMK A01 T02030124  RH  063%=      5-min Rain = 0
KSM1 031030Z 01005KT 20/13 A3005 RMK A01 T02020125  RH  064%=      5-min Rain = 0
KSM1 031035Z 02004KT 20/13 A3005 RMK A01 T02030126  RH  063%=      5-min Rain = 0
KSM1 031040Z 03004KT 21/13 A3005 RMK A01 T02050126  RH  063%=      5-min Rain = 0
KSM1 031045Z 02005KT 21/13 A3005 RMK A01 T02060126  RH  062%=      5-min Rain = 0
KSM1 031050Z 03008KT 21/13 A3006 RMK A01 T02080126  RH  062%=      5-min Rain = 0
KSM1 031055Z 04009KT 21/13 A3007 RMK A01 T02100125  RH  061%=      5-min Rain = 0
KSM1 031100Z 03009KT 21/13 A3007 RMK A01 T02100125  RH  060%=      5-min Rain = 0
KSM1 031105Z 03008KT 21/12 A3007 RMK A01 T02100124  RH  060%=      5-min Rain = 0
KSM1 031110Z 02008KT 21/12 A3007 RMK A01 T02100123  RH  060%=      5-min Rain = 0
KSM1 031115Z 03007KT 21/12 A3008 RMK A01 T02110123  RH  059%=      5-min Rain = 0
KSM1 031120Z 03006KT 21/12 A3007 RMK A01 T02130124  RH  059%=      5-min Rain = 0
KSM1 031125Z 03006KT 21/12 A3007 RMK A01 T02120124  RH  059%=      5-min Rain = 0
KSM1 031130Z 04006KT 21/12 A3008 RMK A01 T02110124  RH  060%=      5-min Rain = 0
KSM1 031135Z 03006KT 21/12 A3008 RMK A01 T02090124  RH  060%=      5-min Rain = 0
KSM1 031140Z 04006KT 21/12 A3008 RMK A01 T02090124  RH  061%=      5-min Rain = 0
KSM1 031145Z 04007KT 21/13 A3008 RMK A01 T02080125  RH  061%=      5-min Rain = 0
KSM1 031150Z 04006KT 21/13 A3009 RMK A01 T02070125  RH  061%=      5-min Rain = 0
KSM1 031155Z 03005KT 21/13 A3009 RMK A01 T02070125  RH  062%=      5-min Rain = 0
KSM1 031200Z 04005KT 21/13 A3009 RMK A01 T02070125  RH  062%=      5-min Rain = 0
KSM1 031205Z 05006KT 21/13 A3009 RMK A01 T02060125  RH  062%=      5-min Rain = 0
KSM1 031210Z 06005KT 21/13 A3009 RMK A01 T02060126  RH  063%=      5-min Rain = 0
KSM1 031215Z 06004KT 21/13 A3008 RMK A01 T02070127  RH  063%=      5-min Rain = 0
KSM1 031220Z 05003KT 21/13 A3008 RMK A01 T02090128  RH  062%=      5-min Rain = 0
KSM1 031225Z 03003KT 21/13 A3008 RMK A01 T02120129  RH  061%=      5-min Rain = 0
KSM1 031230Z 03003KT 22/13 A3008 RMK A01 T02160130  RH  060%=      5-min Rain = 0
KSM1 031235Z 06004KT 22/13 A3008 RMK A01 T02190130  RH  059%=      5-min Rain = 0
KSM1 031240Z 08004KT 22/13 A3008 RMK A01 T02220130  RH  058%=      5-min Rain = 0
KSM1 031245Z 09004KT 22/13 A3008 RMK A01 T02240131  RH  058%=      5-min Rain = 0
KSM1 031250Z 09005KT 23/13 A3008 RMK A01 T02280133  RH  057%=      5-min Rain = 0
KSM1 031255Z 10005KT 23/13 A3008 RMK A01 T02310134  RH  057%=      5-min Rain = 0
KSM1 031300Z 12005KT 23/14 A3007 RMK A01 T02330135  RH  056%=      5-min Rain = 0
KSM1 031305Z 13005KT 24/13 A3007 RMK A01 T02360134  RH  055%=      5-min Rain = 0
KSM1 031310Z 14005KT 24/14 A3007 RMK A01 T02380135  RH  055%=      5-min Rain = 0
KSM1 031315Z 13007KT 24/14 A3007 RMK A01 T02400138  RH  055%=      5-min Rain = 0
KSM1 031320Z 13006KT 24/14 A3008 RMK A01 T02420139  RH  055%=      5-min Rain = 0
KSM1 031325Z 13009KT 25/14 A3008 RMK A01 T02460141  RH  054%=      5-min Rain = 0
KSM1 031330Z 13008KT 25/14 A3008 RMK A01 T02500142  RH  053%=      5-min Rain = 0
KSM1 031335Z 14009KT 25/14 A3008 RMK A01 T02520143  RH  053%=      5-min Rain = 0
KSM1 031340Z 13010KT 25/14 A3009 RMK A01 T02540143  RH  052%=      5-min Rain = 0
KSM1 031345Z 14009KT 26/14 A3009 RMK A01 T02570144  RH  052%=      5-min Rain = 0
KSM1 031350Z 14009KT 26/14 A3009 RMK A01 T02590144  RH  051%=      5-min Rain = 0
KSM1 031355Z 15009KT 26/15 A3009 RMK A01 T02600145  RH  051%=      5-min Rain = 0
KSM1 031400Z 15009KT 26/15 A3009 RMK A01 T02590145  RH  052%=      5-min Rain = 0
KSM1 031405Z 15010KT 26/15 A3009 RMK A01 T02590146  RH  052%=      5-min Rain = 0
KSM1 031410Z 15010KT 26/15 A3009 RMK A01 T02590146  RH  052%=      5-min Rain = 0
KSM1 031415Z 15009KT 26/15 A3009 RMK A01 T02600147  RH  052%=      5-min Rain = 0
KSM1 031420Z 15010KT 26/15 A3009 RMK A01 T02640147  RH  051%=      5-min Rain = 0
KSM1 031425Z 16010KT 27/15 A3009 RMK A01 T02700148  RH  049%=      5-min Rain = 0
KSM1 031430Z 15011KT 27/15 A3009 RMK A01 T02710148  RH  049%=      5-min Rain = 0
KSM1 031435Z 15011KT 27/15 A3009 RMK A01 T02740148  RH  048%=      5-min Rain = 0
KSM1 031440Z 16011KT 28/15 A301 RMK A01 T02770148  RH  047%=      5-min Rain = 0
KSM1 031445Z 16010KT 28/15 A301 RMK A01 T02780148  RH  047%=      5-min Rain = 0
KSM1 031450Z 17011KT 28/15 A301 RMK A01 T02800148  RH  047%=      5-min Rain = 0
KSM1 031455Z 17010KT 28/15 A301 RMK A01 T02810148  RH  046%=      5-min Rain = 0
KSM1 031500Z 17010G15KT 28/15 A301 RMK A01 T02820148  RH  046%=      5-min Rain = 0
KSM1 031505Z 16010KT 28/15 A301 RMK A01 T02830148  RH  046%=      5-min Rain = 0
KSM1 031510Z 15012KT 28/15 A3009 RMK A01 T02820149  RH  046%=      5-min Rain = 0
KSM1 031515Z 15011KT 28/15 A301 RMK A01 T02820149  RH  046%=      5-min Rain = 0
KSM1 031520Z 17011KT 29/15 A301 RMK A01 T02850149  RH  046%=      5-min Rain = 0
KSM1 031525Z 17011KT 29/15 A301 RMK A01 T02880149  RH  045%=      5-min Rain = 0
KSM1 031530Z 16010KT 29/15 A301 RMK A01 T02870150  RH  045%=      5-min Rain = 0
KSM1 031535Z 14010G15KT 29/15 A301 RMK A01 T02890151  RH  045%=      5-min Rain = 0
KSM1 031540Z 16009G14KT 29/15 A301 RMK A01 T02900151  RH  045%=      5-min Rain = 0
KSM1 031545Z 16011G16KT 29/15 A301 RMK A01 T02900151  RH  045%=      5-min Rain = 0
KSM1 031550Z 14010KT 29/15 A301 RMK A01 T02900152  RH  045%=      5-min Rain = 0
KSM1 031555Z 17010KT 29/15 A301 RMK A01 T02930151  RH  044%=      5-min Rain = 0
KSM1 031600Z 14009KT 30/15 A301 RMK A01 T02960153  RH  044%=      5-min Rain = 0
KSM1 031605Z 13010KT 30/15 A301 RMK A01 T02960153  RH  044%=      5-min Rain = 0
KSM1 031610Z 14008G14KT 30/15 A301 RMK A01 T02960152  RH  043%=      5-min Rain = 0
KSM1 031615Z 16007G13KT 30/15 A301 RMK A01 T03000153  RH  043%=      5-min Rain = 0
KSM1 031620Z 17010KT 30/15 A301 RMK A01 T03000151  RH  042%=      5-min Rain = 0
KSM1 031625Z 15006KT 30/15 A301 RMK A01 T03000151  RH  042%=      5-min Rain = 0
KSM1 031630Z 14008KT 30/15 A301 RMK A01 T03010150  RH  042%=      5-min Rain = 0
KSM1 031635Z 13007KT 30/15 A3011 RMK A01 T03010148  RH  041%=      5-min Rain = 0
KSM1 031640Z 13005KT 30/15 A301 RMK A01 T03030147  RH  041%=      5-min Rain = 0
KSM1 031645Z 14008KT 31/15 A301 RMK A01 T03050149  RH  040%=      5-min Rain = 0
KSM1 031650Z 16008G13KT 31/15 A301 RMK A01 T03060146  RH  039%=      5-min Rain = 0
KSM1 031655Z 15009KT 31/15 A301 RMK A01 T03100149  RH  039%=      5-min Rain = 0
KSM1 031700Z 15008G13KT 31/15 A301 RMK A01 T03090149  RH  040%=      5-min Rain = 0
KSM1 031705Z 15009G15KT 31/15 A301 RMK A01 T03130147  RH  038%=      5-min Rain = 0
KSM1 031710Z 12006KT 31/15 A301 RMK A01 T03140145  RH  037%=      5-min Rain = 0
KSM1 031715Z 13009G14KT 32/14 A301 RMK A01 T03160142  RH  036%=      5-min Rain = 0
KSM1 031720Z 13006KT 32/14 A301 RMK A01 T03160139  RH  036%=      5-min Rain = 0
KSM1 031725Z 13007G12KT 32/14 A301 RMK A01 T03170144  RH  037%=      5-min Rain = 0
KSM1 031730Z 12008G13KT 32/14 A301 RMK A01 T03220139  RH  034%=      5-min Rain = 0
KSM1 031735Z 12006G11KT 32/14 A301 RMK A01 T03200144  RH  036%=      5-min Rain = 0
KSM1 031740Z 13007KT 32/14 A301 RMK A01 T03200144  RH  036%=      5-min Rain = 0
KSM1 031745Z 15008KT 33/14 A301 RMK A01 T03260139  RH  034%=      5-min Rain = 0
KSM1 031750Z 15004KT 33/14 A301 RMK A01 T03250139  RH  034%=      5-min Rain = 0
KSM1 031755Z 12010G15KT 33/14 A3009 RMK A01 T03270136  RH  033%=      5-min Rain = 0
KSM1 031800Z 11006KT 33/13 A3009 RMK A01 T03290133  RH  032%=      5-min Rain = 0
KSM1 031805Z 12011G17KT 33/13 A3009 RMK A01 T03290134  RH  032%=      5-min Rain = 0
KSM1 031810Z 11008G13KT 33/14 A3009 RMK A01 T03270135  RH  032%=      5-min Rain = 0
KSM1 031815Z 11010G16KT 32/14 A3009 RMK A01 T03240136  RH  033%=      5-min Rain = 0
KSM1 031820Z 14008G13KT 33/14 A3009 RMK A01 T03280135  RH  032%=      5-min Rain = 0
KSM1 031825Z 13008G14KT 34/13 A3009 RMK A01 T03370132  RH  030%=      5-min Rain = 0
KSM1 031830Z 13009G17KT 34/14 A3008 RMK A01 T03370137  RH  031%=      5-min Rain = 0
KSM1 031835Z 13008G16KT 33/14 A3008 RMK A01 T03340139  RH  032%=      5-min Rain = 0
KSM1 031840Z 12012G17KT 34/13 A3008 RMK A01 T03370130  RH  030%=      5-min Rain = 0
KSM1 031845Z 10007G13KT 34/13 A3008 RMK A01 T03360129  RH  030%=      5-min Rain = 0
KSM1 031850Z 15012G17KT 33/13 A3008 RMK A01 T03340134  RH  031%=      5-min Rain = 0
KSM1 031855Z 15011KT 34/13 A3007 RMK A01 T03400131  RH  029%=      5-min Rain = 0
KSM1 031900Z 14009G14KT 34/13 A3007 RMK A01 T03380127  RH  029%=      5-min Rain = 0
KSM1 031905Z 11010G17KT 33/12 A3007 RMK A01 T03340121  RH  028%=      5-min Rain = 0
KSM1 031910Z 12012G19KT 34/12 A3007 RMK A01 T03420118  RH  027%=      5-min Rain = 0
KSM1 031915Z 13009G16KT 34/12 A3006 RMK A01 T03420121  RH  027%=      5-min Rain = 0
KSM1 031920Z 11011G21KT 34/12 A3006 RMK A01 T03440122  RH  027%=      5-min Rain = 0
KSM1 031925Z 12013G20KT 35/12 A3006 RMK A01 T03470123  RH  027%=      5-min Rain = 0
KSM1 031930Z 10009G16KT 34/12 A3006 RMK A01 T03410124  RH  028%=      5-min Rain = 0
KSM1 031935Z 10013KT 35/12 A3006 RMK A01 T03450121  RH  027%=      5-min Rain = 0
KSM1 031940Z 12011G17KT 34/12 A3005 RMK A01 T03440117  RH  026%=      5-min Rain = 0
KSM1 031945Z 13009G17KT 34/11 A3005 RMK A01 T03440114  RH  026%=      5-min Rain = 0
KSM1 031950Z 15013G22KT 35/12 A3005 RMK A01 T03470116  RH  025%=      5-min Rain = 0
KSM1 031955Z 14011G17KT 35/12 A3005 RMK A01 T03490117  RH  025%=      5-min Rain = 0
KSM1 032000Z 14007G15KT 35/12 A3005 RMK A01 T03480115  RH  025%=      5-min Rain = 0
KSM1 032005Z 11011G19KT 34/11 A3005 RMK A01 T03410112  RH  026%=      5-min Rain = 0
KSM1 032010Z 10006G11KT 34/11 A3004 RMK A01 T03400111  RH  026%=      5-min Rain = 0
KSM1 032015Z 14010G16KT 35/11 A3004 RMK A01 T03490111  RH  025%=      5-min Rain = 0
KSM1 032020Z 14011KT 35/11 A3004 RMK A01 T03490114  RH  025%=      5-min Rain = 0
KSM1 032025Z 10012G18KT 35/12 A3004 RMK A01 T03510115  RH  025%=      5-min Rain = 0
KSM1 032030Z 10012G18KT 35/11 A3004 RMK A01 T03520111  RH  024%=      5-min Rain = 0
KSM1 032035Z 09011G16KT 35/11 A3004 RMK A01 T03460108  RH  024%=      5-min Rain = 0
KSM1 032040Z 13009G20KT 35/11 A3004 RMK A01 T03480107  RH  024%=      5-min Rain = 0
KSM1 032045Z 15012G18KT 35/11 A3004 RMK A01 T03500106  RH  024%=      5-min Rain = 0
KSM1 032050Z 17009G14KT 35/10 A3004 RMK A01 T03510103  RH  023%=      5-min Rain = 0
KSM1 032055Z 13007G16KT 36/10 A3004 RMK A01 T03590102  RH  022%=      5-min Rain = 0
KSM1 032100Z 14010G17KT 36/10 A3004 RMK A01 T03580100  RH  022%=      5-min Rain = 0
KSM1 032105Z 15010KT 36/10 A3004 RMK A01 T03630100  RH  021%=      5-min Rain = 0
KSM1 032110Z 12010G19KT 36/10 A3003 RMK A01 T03630101  RH  021%=      5-min Rain = 0
KSM1 032115Z 12012G18KT 36/10 A3003 RMK A01 T03600097  RH  021%=      5-min Rain = 0
KSM1 032120Z 11013G18KT 36/09 A3003 RMK A01 T03610094  RH  020%=      5-min Rain = 0
KSM1 032125Z 12009G16KT 36/10 A3003 RMK A01 T03590096  RH  021%=      5-min Rain = 0
KSM1 032130Z 11009G15KT 35/09 A3003 RMK A01 T03540093  RH  021%=      5-min Rain = 0
KSM1 032135Z 12011G18KT 36/09 A3003 RMK A01 T03580090  RH  020%=      5-min Rain = 0
KSM1 032140Z 12009G15KT 36/09 A3002 RMK A01 T03590089  RH  020%=      5-min Rain = 0
KSM1 032145Z 15004G11KT 36/09 A3002 RMK A01 T03560088  RH  020%=      5-min Rain = 0
KSM1 032150Z 12007G13KT 36/09 A3002 RMK A01 T03580091  RH  020%=      5-min Rain = 0
KSM1 032155Z 11010G15KT 36/09 A3002 RMK A01 T03550089  RH  020%=      5-min Rain = 0
KSM1 032200Z 12010G15KT 36/09 A3002 RMK A01 T03560086  RH  020%=      5-min Rain = 0
KSM1 032205Z 08008G13KT 36/09 A3002 RMK A01 T03570086  RH  020%=      5-min Rain = 0
KSM1 032210Z 08004KT 36/09 A3002 RMK A01 T03580085  RH  019%=      5-min Rain = 0
KSM1 032215Z 09005G10KT 36/09 A3002 RMK A01 T03600085  RH  019%=      5-min Rain = 0
KSM1 032220Z 10007G12KT 36/09 A3001 RMK A01 T03590086  RH  019%=      5-min Rain = 0
KSM1 032225Z 11008KT 36/09 A3001 RMK A01 T03590085  RH  019%=      5-min Rain = 0
KSM1 032230Z 11009G15KT 36/08 A3001 RMK A01 T03580084  RH  019%=      5-min Rain = 0
KSM1 032235Z 11007G14KT 36/08 A3001 RMK A01 T03550083  RH  019%=      5-min Rain = 0
KSM1 032240Z 13011KT 36/08 A3001 RMK A01 T03570082  RH  019%=      5-min Rain = 0
KSM1 032245Z 11006G13KT 35/08 A30 RMK A01 T03540082  RH  019%=      5-min Rain = 0
KSM1 032250Z 17007KT 36/08 A30 RMK A01 T03550080  RH  019%=      5-min Rain = 0
KSM1 032255Z 15005KT 36/08 A30 RMK A01 T03560081  RH  019%=      5-min Rain = 0
KSM1 032300Z 14005G11KT 36/08 A30 RMK A01 T03590081  RH  019%=      5-min Rain = 0
KSM1 032305Z 10009G14KT 36/08 A30 RMK A01 T03610082  RH  019%=      5-min Rain = 0
KSM1 032310Z 10011KT 36/08 A30 RMK A01 T03600084  RH  019%=      5-min Rain = 0
KSM1 032315Z 13011KT 36/08 A30 RMK A01 T03640082  RH  018%=      5-min Rain = 0
KSM1 032320Z 12008KT 36/08 A2999 RMK A01 T03620081  RH  019%=      5-min Rain = 0
KSM1 032325Z 10010G15KT 36/08 A2999 RMK A01 T03590080  RH  019%=      5-min Rain = 0
KSM1 032330Z 10011KT 36/08 A2999 RMK A01 T03570080  RH  019%=      5-min Rain = 0
KSM1 032335Z 12011G16KT 36/08 A2999 RMK A01 T03610079  RH  018%=      5-min Rain = 0
KSM1 032340Z 11010G15KT 36/08 A2999 RMK A01 T03590081  RH  019%=      5-min Rain = 0
KSM1 032345Z 14010G16KT 36/08 A2998 RMK A01 T03580081  RH  019%=      5-min Rain = 0
KSM1 032350Z 13012KT 36/08 A2998 RMK A01 T03570080  RH  019%=      5-min Rain = 0
KSM1 032355Z 13012KT 36/08 A2998 RMK A01 T03580080  RH  019%=      5-min Rain = 0
KSM1 040000Z 12011KT 36/08 A2998 RMK A01 T03550079  RH  019%=      5-min Rain = 0
KSM1 040005Z 14012KT 36/08 A2998 RMK A01 T03550080  RH  019%=      5-min Rain = 0
KSM1 040010Z 10011G17KT 35/08 A2998 RMK A01 T03540081  RH  019%=      5-min Rain = 0
KSM1 040015Z 11012G17KT 35/08 A2999 RMK A01 T03540080  RH  019%=      5-min Rain = 0
KSM1 040020Z 10012KT 35/08 A2999 RMK A01 T03530082  RH  020%=      5-min Rain = 0
KSM1 040025Z 09010KT 35/08 A2999 RMK A01 T03510082  RH  020%=      5-min Rain = 0
KSM1 040030Z 09010KT 35/08 A2999 RMK A01 T03480082  RH  020%=      5-min Rain = 0
KSM1 040035Z 13011G16KT 35/08 A2999 RMK A01 T03460081  RH  020%=      5-min Rain = 0
KSM1 040040Z 14010KT 34/08 A2999 RMK A01 T03440082  RH  021%=      5-min Rain = 0
KSM1 040045Z 14010KT 34/08 A2999 RMK A01 T03420083  RH  021%=      5-min Rain = 0
KSM1 040050Z 12009KT 34/08 A2999 RMK A01 T03400082  RH  021%=      5-min Rain = 0
KSM1 040055Z 11010KT 34/08 A2999 RMK A01 T03400081  RH  021%=      5-min Rain = 0
KSM1 040100Z 11010G15KT 34/08 A30 RMK A01 T03400083  RH  021%=      5-min Rain = 0
KSM1 040105Z 10011KT 34/09 A30 RMK A01 T03400085  RH  021%=      5-min Rain = 0
KSM1 040110Z 11011KT 34/08 A30 RMK A01 T03380084  RH  022%=      5-min Rain = 0
KSM1 040115Z 12009KT 34/08 A30 RMK A01 T03370084  RH  022%=      5-min Rain = 0
KSM1 040120Z 14008KT 33/09 A30 RMK A01 T03340087  RH  022%=      5-min Rain = 0
KSM1 040125Z 13009KT 33/09 A30 RMK A01 T03310088  RH  023%=      5-min Rain = 0
KSM1 040130Z 13008KT 33/09 A30 RMK A01 T03290089  RH  023%=      5-min Rain = 0
KSM1 040135Z 13007KT 33/09 A30 RMK A01 T03260089  RH  024%=      5-min Rain = 0
KSM1 040140Z 13007KT 33/09 A30 RMK A01 T03250086  RH  024%=      5-min Rain = 0
KSM1 040145Z 12008KT 32/09 A3001 RMK A01 T03240086  RH  024%=      5-min Rain = 0
KSM1 040150Z 12007KT 32/09 A3001 RMK A01 T03230086  RH  024%=      5-min Rain = 0
KSM1 040155Z 12008KT 32/09 A3001 RMK A01 T03200086  RH  024%=      5-min Rain = 0
KSM1 040200Z 12007KT 32/09 A3001 RMK A01 T03160085  RH  025%=      5-min Rain = 0
KSM1 040205Z 12007KT 32/09 A3001 RMK A01 T03150085  RH  025%=      5-min Rain = 0
KSM1 040210Z 11008KT 31/09 A3001 RMK A01 T03130085  RH  025%=      5-min Rain = 0
KSM1 040215Z 11008KT 31/09 A3001 RMK A01 T03120085  RH  025%=      5-min Rain = 0
KSM1 040220Z 10008KT 31/09 A3001 RMK A01 T03110085  RH  025%=      5-min Rain = 0
KSM1 040225Z 10008KT 31/09 A3001 RMK A01 T03100087  RH  026%=      5-min Rain = 0
KSM1 040230Z 10009KT 31/09 A3002 RMK A01 T03070089  RH  027%=      5-min Rain = 0
KSM1 040235Z 10008KT 30/09 A3002 RMK A01 T03040091  RH  027%=      5-min Rain = 0
KSM1 040240Z 09009KT 30/09 A3002 RMK A01 T03010092  RH  028%=      5-min Rain = 0
KSM1 040245Z 09008KT 30/09 A3002 RMK A01 T03000091  RH  028%=      5-min Rain = 0
KSM1 040250Z 10009KT 30/09 A3002 RMK A01 T02990091  RH  028%=      5-min Rain = 0
KSM1 040255Z 11008KT 30/09 A3003 RMK A01 T02990089  RH  028%=      5-min Rain = 0
KSM1 040300Z 11009KT 30/09 A3003 RMK A01 T03000088  RH  027%=      5-min Rain = 0
KSM1 040305Z 11008KT 30/09 A3003 RMK A01 T02990088  RH  028%=      5-min Rain = 0
KSM1 040310Z 11009KT 30/09 A3003 RMK A01 T02980088  RH  028%=      5-min Rain = 0
KSM1 040315Z 11009KT 30/09 A3004 RMK A01 T02970088  RH  028%=      5-min Rain = 0
KSM1 040320Z 11009KT 30/09 A3004 RMK A01 T02970087  RH  028%=      5-min Rain = 0
KSM1 040325Z 10009KT 30/09 A3005 RMK A01 T02970087  RH  028%=      5-min Rain = 0
KSM1 040330Z 10010KT 30/09 A3005 RMK A01 T02960088  RH  028%=      5-min Rain = 0
KSM1 040335Z 11010KT 30/09 A3005 RMK A01 T02970087  RH  028%=      5-min Rain = 0
KSM1 040340Z 10010KT 30/09 A3005 RMK A01 T02980088  RH  028%=      5-min Rain = 0
KSM1 040345Z 10010KT 30/09 A3005 RMK A01 T02970089  RH  028%=      5-min Rain = 0
KSM1 040350Z 11010KT 30/09 A3005 RMK A01 T02970090  RH  028%=      5-min Rain = 0
KSM1 040355Z 11011KT 30/09 A3005 RMK A01 T02970090  RH  028%=      5-min Rain = 0
KSM1 040400Z 11010KT 30/09 A3005 RMK A01 T02960091  RH  029%=      5-min Rain = 0
KSM1 040405Z 11011KT 29/09 A3005 RMK A01 T02940091  RH  029%=      5-min Rain = 0
KSM1 040410Z 12011KT 29/09 A3006 RMK A01 T02930092  RH  029%=      5-min Rain = 0
KSM1 040415Z 11010KT 29/09 A3006 RMK A01 T02910093  RH  030%=      5-min Rain = 0
KSM1 040420Z 12010KT 29/09 A3006 RMK A01 T02900093  RH  030%=      5-min Rain = 0
KSM1 040425Z 12010KT 29/09 A3006 RMK A01 T02880093  RH  031%=      5-min Rain = 0
KSM1 040430Z 12010KT 29/09 A3006 RMK A01 T02870094  RH  031%=      5-min Rain = 0
KSM1 040435Z 11010KT 29/09 A3006 RMK A01 T02860094  RH  031%=      5-min Rain = 0
KSM1 040440Z 10010KT 28/10 A3007 RMK A01 T02840096  RH  032%=      5-min Rain = 0
KSM1 040445Z 11010KT 28/10 A3007 RMK A01 T02800097  RH  033%=      5-min Rain = 0
KSM1 040450Z 12010KT 28/10 A3007 RMK A01 T02810096  RH  032%=      5-min Rain = 0
KSM1 040455Z 11010KT 28/10 A3007 RMK A01 T02810096  RH  032%=      5-min Rain = 0

Page generated in 0.01 seconds.